Time;durP1;ratioP1;P1;durP2;ratioP2;P2;SDS_P1;SDS_P2;PMS_P1;PMS_P2;Temp;Humidity;BMP_temperature;BMP_pressure;BME280_temperature;BME280_humidity;BME280_pressure;Samples;Min_cycle;Max_cycle;Signal;HPM_P1;HPM_P2
2022/05/07 00:02:07;;;;;;;66.65;50.80;;;20.50;58.20;;;;;;4949340;28;97944;-66
2022/05/07 00:04:37;;;;;;;66.20;51.00;;;20.50;58.30;;;;;;4941595;28;98049;-66
2022/05/07 00:07:06;;;;;;;67.65;51.38;;;20.50;58.40;;;;;;4946510;28;95379;-66
2022/05/07 00:09:33;;;;;;;66.60;51.33;;;20.50;58.30;;;;;;4939801;28;96116;-66
2022/05/07 00:11:59;;;;;;;66.72;50.90;;;20.50;58.30;;;;;;4933748;28;96888;-67
2022/05/07 00:14:25;;;;;;;65.65;50.80;;;20.50;58.20;;;;;;4939995;28;96172;-66
2022/05/07 00:19:35;;;;;;;65.90;50.88;;;20.40;58.20;;;;;;4940868;28;98677;-66
2022/05/07 00:22:02;;;;;;;65.97;51.03;;;20.40;58.00;;;;;;4943155;28;98908;-66
2022/05/07 00:24:27;;;;;;;66.07;50.97;;;20.40;58.10;;;;;;4945088;28;97340;-66
2022/05/07 00:26:53;;;;;;;65.50;50.70;;;20.40;58.10;;;;;;4945652;28;95043;-66
2022/05/07 00:29:19;;;;;;;66.88;51.10;;;20.40;57.90;;;;;;4952608;28;95558;-67
2022/05/07 00:31:45;;;;;;;67.20;51.42;;;20.40;58.10;;;;;;4940321;28;95289;-66
2022/05/07 00:34:11;;;;;;;66.00;50.85;;;20.40;58.10;;;;;;4951092;28;95885;-67
2022/05/07 00:36:36;;;;;;;67.20;51.05;;;20.40;58.10;;;;;;4949814;28;95017;-66
2022/05/07 00:39:03;;;;;;;66.25;50.90;;;20.40;58.20;;;;;;4945764;28;94502;-67
2022/05/07 00:41:29;;;;;;;65.63;51.00;;;20.40;58.10;;;;;;4922306;28;96112;-66
2022/05/07 00:43:54;;;;;;;66.72;51.03;;;20.30;58.10;;;;;;4945512;28;95107;-66
2022/05/07 00:46:25;;;;;;;66.57;51.33;;;20.30;58.10;;;;;;4938031;28;99975;-66
2022/05/07 00:48:52;;;;;;;66.68;50.83;;;20.30;58.10;;;;;;4948851;28;94731;-66
2022/05/07 00:51:34;;;;;;;65.50;50.63;;;20.30;58.10;;;;;;4942817;28;97170;-67
2022/05/07 00:54:08;;;;;;;66.50;51.28;;;20.30;58.10;;;;;;4943212;28;97319;-66
2022/05/07 00:56:35;;;;;;;66.13;50.95;;;20.30;58.10;;;;;;4942064;28;95347;-66
2022/05/07 00:59:01;;;;;;;65.78;51.15;;;20.30;58.20;;;;;;4946272;28;96735;-66
2022/05/07 01:01:27;;;;;;;67.43;51.50;;;20.30;58.10;;;;;;4944780;28;96519;-67
2022/05/07 01:03:53;;;;;;;66.95;51.25;;;20.30;58.10;;;;;;4947711;28;94736;-66
2022/05/07 01:06:20;;;;;;;67.47;51.25;;;20.20;58.10;;;;;;4939515;28;97102;-66
2022/05/07 01:08:47;;;;;;;67.00;51.67;;;20.20;58.10;;;;;;4944957;28;95019;-66
2022/05/07 01:11:18;;;;;;;67.25;51.60;;;20.20;58.10;;;;;;4926762;28;96631;-67
2022/05/07 01:13:45;;;;;;;66.47;51.40;;;20.20;58.30;;;;;;4943775;28;96110;-66
2022/05/07 01:16:12;;;;;;;66.25;50.90;;;20.20;58.10;;;;;;4937301;28;95172;-66
2022/05/07 01:18:39;;;;;;;65.88;51.10;;;20.20;58.10;;;;;;4945697;28;96890;-67
2022/05/07 01:21:12;;;;;;;67.40;51.30;;;20.20;58.10;;;;;;4934188;28;98015;-67
2022/05/07 01:23:40;;;;;;;65.93;51.33;;;20.20;58.00;;;;;;4949219;28;96361;-66
2022/05/07 01:26:06;;;;;;;67.75;51.60;;;20.20;58.10;;;;;;4947727;28;95757;-67
2022/05/07 01:28:31;;;;;;;65.93;51.08;;;20.20;58.20;;;;;;4945233;28;94496;-66
2022/05/07 01:30:57;;;;;;;66.50;51.70;;;20.20;58.10;;;;;;4947912;28;96181;-66
2022/05/07 01:33:23;;;;;;;65.97;51.17;;;20.20;58.00;;;;;;4947488;28;95039;-66
2022/05/07 01:35:49;;;;;;;65.60;50.95;;;20.10;57.90;;;;;;4945660;28;99114;-66
2022/05/07 01:38:14;;;;;;;66.75;51.25;;;20.10;58.00;;;;;;4955334;28;98996;-67
2022/05/07 01:40:40;;;;;;;65.95;51.05;;;20.20;58.10;;;;;;4941696;28;97987;-66
2022/05/07 01:43:05;;;;;;;65.68;51.53;;;20.10;58.20;;;;;;4943626;28;96313;-66
2022/05/07 01:45:31;;;;;;;67.28;51.97;;;20.10;58.60;;;;;;4956875;28;97678;-66
2022/05/07 01:48:13;;;;;;;67.80;51.50;;;20.10;58.00;;;;;;4945673;28;95204;-66
2022/05/07 01:50:40;;;;;;;66.45;51.55;;;20.10;58.20;;;;;;4953166;28;97055;-66
2022/05/07 01:53:08;;;;;;;65.80;50.95;;;20.10;58.00;;;;;;4951665;28;96200;-66
2022/05/07 01:55:34;;;;;;;66.65;51.72;;;20.10;58.10;;;;;;4953236;28;95232;-66
2022/05/07 01:58:00;;;;;;;65.85;50.97;;;20.10;58.10;;;;;;4950797;28;95114;-67
2022/05/07 02:00:26;;;;;;;66.38;50.90;;;20.10;58.10;;;;;;4945694;28;95986;-66
2022/05/07 02:02:52;;;;;;;67.35;51.85;;;20.10;57.90;;;;;;4948886;28;96838;-66
2022/05/07 02:05:18;;;;;;;66.10;50.95;;;20.10;57.90;;;;;;4952448;28;95474;-66
2022/05/07 02:07:44;;;;;;;65.80;51.28;;;20.10;58.00;;;;;;4944345;28;95169;-66
2022/05/07 02:10:10;;;;;;;66.57;51.45;;;20.10;57.90;;;;;;4942879;28;96588;-66
2022/05/07 02:12:36;;;;;;;66.90;51.67;;;20.10;58.10;;;;;;4934917;28;95475;-66
2022/05/07 02:15:02;;;;;;;67.00;51.80;;;20.00;57.90;;;;;;4940962;28;97273;-67
2022/05/07 02:17:27;;;;;;;66.80;51.45;;;20.00;58.00;;;;;;4948984;28;94716;-66
2022/05/07 02:19:53;;;;;;;68.35;51.40;;;20.00;58.00;;;;;;4942104;28;95908;-66
2022/05/07 02:22:19;;;;;;;67.03;51.88;;;20.00;58.10;;;;;;4935795;28;97991;-66
2022/05/07 02:24:46;;;;;;;67.30;51.97;;;20.00;57.90;;;;;;4937008;28;102787;-66
2022/05/07 02:27:12;;;;;;;67.60;52.35;;;20.00;57.90;;;;;;4953109;28;95859;-66
2022/05/07 02:29:37;;;;;;;66.75;51.90;;;20.00;57.90;;;;;;4949984;28;96414;-66
2022/05/07 02:32:04;;;;;;;67.57;52.35;;;20.00;58.00;;;;;;4942728;28;96080;-66
2022/05/07 02:34:31;;;;;;;67.55;52.10;;;20.00;57.80;;;;;;4941841;28;95203;-66
2022/05/07 02:36:57;;;;;;;67.13;52.25;;;20.00;57.90;;;;;;4944116;28;95248;-66
2022/05/07 02:39:23;;;;;;;65.95;51.13;;;20.00;58.00;;;;;;4944449;28;95057;-66
2022/05/07 02:44:33;;;;;;;66.03;51.42;;;20.00;58.00;;;;;;4940789;28;95765;-66
2022/05/07 02:46:58;;;;;;;66.00;51.63;;;19.90;58.00;;;;;;4948374;28;98025;-67
2022/05/07 02:49:24;;;;;;;67.05;52.30;;;20.00;58.00;;;;;;4944072;28;98155;-66
2022/05/07 02:51:50;;;;;;;67.18;52.08;;;20.00;57.90;;;;;;4946565;28;100910;-66
2022/05/07 02:54:16;;;;;;;66.75;51.60;;;19.90;57.90;;;;;;4944035;28;94869;-66
2022/05/07 02:56:41;;;;;;;67.95;52.22;;;19.90;58.00;;;;;;4945602;28;100464;-66
2022/05/07 02:59:07;;;;;;;67.30;51.42;;;19.90;57.90;;;;;;4945175;28;95779;-66
2022/05/07 03:01:32;;;;;;;68.03;53.00;;;20.00;58.10;;;;;;4943173;28;96186;-66
2022/05/07 03:03:58;;;;;;;67.35;51.90;;;19.90;58.00;;;;;;4937111;28;96326;-66
2022/05/07 03:06:24;;;;;;;66.75;52.08;;;20.00;57.90;;;;;;4949493;28;94325;-67
2022/05/07 03:08:49;;;;;;;66.78;52.00;;;19.90;57.90;;;;;;4944818;28;94830;-66
2022/05/07 03:11:15;;;;;;;68.13;51.95;;;19.90;58.00;;;;;;4934613;28;98277;-66
2022/05/07 03:13:41;;;;;;;65.88;51.40;;;19.90;57.90;;;;;;4937784;28;95637;-67
2022/05/07 03:16:07;;;;;;;65.93;51.75;;;19.90;58.00;;;;;;4942361;28;95127;-66
2022/05/07 03:18:32;;;;;;;66.53;52.00;;;19.90;57.90;;;;;;4941803;28;100323;-66
2022/05/07 03:21:01;;;;;;;66.10;51.22;;;19.90;57.90;;;;;;4939256;28;100929;-66
2022/05/07 03:23:27;;;;;;;65.82;51.22;;;19.90;57.90;;;;;;4950693;28;95385;-67
2022/05/07 03:25:53;;;;;;;66.47;51.88;;;19.90;58.00;;;;;;4945353;28;96152;-66
2022/05/07 03:28:18;;;;;;;66.32;51.55;;;19.90;57.90;;;;;;4944778;28;95813;-66
2022/05/07 03:30:44;;;;;;;66.55;51.88;;;19.90;57.90;;;;;;4942428;28;93945;-66
2022/05/07 03:33:10;;;;;;;67.40;51.90;;;19.90;58.00;;;;;;4943277;28;101112;-67
2022/05/07 03:35:35;;;;;;;67.88;52.08;;;19.80;57.80;;;;;;4942854;28;95269;-66
2022/05/07 03:38:01;;;;;;;65.93;51.38;;;19.90;57.90;;;;;;4936166;28;99459;-66
2022/05/07 03:40:28;;;;;;;68.55;51.85;;;19.90;57.90;;;;;;4938668;28;96102;-66
2022/05/07 03:42:54;;;;;;;65.90;51.35;;;19.90;58.00;;;;;;4931884;28;95305;-66
2022/05/07 03:45:20;;;;;;;65.88;51.35;;;19.90;57.90;;;;;;4940558;28;94650;-66
2022/05/07 03:47:46;;;;;;;66.60;51.67;;;19.90;57.90;;;;;;4946253;28;95793;-66
2022/05/07 03:50:12;;;;;;;66.82;51.80;;;19.80;57.80;;;;;;4933928;28;95600;-68
2022/05/07 03:55:22;;;;;;;66.88;51.35;;;19.90;57.90;;;;;;4947428;28;94361;-66
2022/05/07 03:57:47;;;;;;;66.68;52.20;;;19.80;58.00;;;;;;4943246;28;97682;-66
2022/05/07 04:00:13;;;;;;;68.53;52.08;;;19.80;57.80;;;;;;4954896;28;97791;-67
2022/05/07 04:02:40;;;;;;;65.78;51.35;;;19.80;58.00;;;;;;4940561;28;96111;-66
2022/05/07 04:05:05;;;;;;;68.72;52.33;;;19.80;58.00;;;;;;4937055;28;97975;-66
2022/05/07 04:07:31;;;;;;;67.68;52.10;;;19.80;57.80;;;;;;4940380;28;98249;-66
2022/05/07 04:09:57;;;;;;;66.47;51.72;;;19.90;58.10;;;;;;4935568;28;95337;-66
2022/05/07 04:12:23;;;;;;;66.00;51.53;;;19.80;57.80;;;;;;4927004;28;95546;-66
2022/05/07 04:14:48;;;;;;;66.20;51.92;;;19.90;57.90;;;;;;4939078;28;95818;-66
2022/05/07 04:17:14;;;;;;;67.85;52.38;;;19.80;58.00;;;;;;4943852;28;99078;-66
2022/05/07 04:19:40;;;;;;;67.90;52.25;;;19.80;57.80;;;;;;4944580;28;95277;-66
2022/05/07 04:22:06;;;;;;;65.70;51.67;;;19.80;57.90;;;;;;4946539;28;96864;-65
2022/05/07 04:24:36;;;;;;;67.30;52.35;;;19.80;58.00;;;;;;4944421;28;96560;-66
2022/05/07 04:27:02;;;;;;;66.10;51.42;;;19.80;58.00;;;;;;4950528;28;101185;-66
2022/05/07 04:29:27;;;;;;;66.43;52.05;;;19.80;57.90;;;;;;4947354;28;95048;-66
2022/05/07 04:31:53;;;;;;;66.72;52.10;;;19.80;58.00;;;;;;4944016;28;95385;-66
2022/05/07 04:34:19;;;;;;;67.05;52.35;;;19.80;57.90;;;;;;4945430;28;97365;-66
2022/05/07 04:36:44;;;;;;;65.32;51.47;;;19.80;57.90;;;;;;4939350;28;99237;-67
2022/05/07 04:39:10;;;;;;;67.43;51.47;;;19.80;57.90;;;;;;4942400;28;96854;-66
2022/05/07 04:41:36;;;;;;;66.25;51.70;;;19.80;57.90;;;;;;4931801;28;95435;-66
2022/05/07 04:44:01;;;;;;;67.00;52.13;;;19.80;57.90;;;;;;4931171;28;98717;-66
2022/05/07 04:46:27;;;;;;;66.38;51.40;;;19.80;58.00;;;;;;4946659;28;95512;-66
2022/05/07 04:48:53;;;;;;;66.55;51.80;;;19.80;58.00;;;;;;4942019;28;96136;-67
2022/05/07 04:51:18;;;;;;;66.15;51.88;;;19.80;57.90;;;;;;4948417;28;96019;-67
2022/05/07 04:53:44;;;;;;;67.93;52.70;;;19.80;58.10;;;;;;4945319;28;96703;-66
2022/05/07 04:56:10;;;;;;;67.40;51.67;;;19.80;57.70;;;;;;4942786;28;96549;-66
2022/05/07 04:58:36;;;;;;;66.88;52.20;;;19.80;57.90;;;;;;4943073;28;101671;-66
2022/05/07 05:01:01;;;;;;;66.20;51.75;;;19.80;57.70;;;;;;4945504;28;96888;-66
2022/05/07 05:03:27;;;;;;;67.53;52.15;;;19.80;57.90;;;;;;4939039;28;96170;-66
2022/05/07 05:05:53;;;;;;;68.82;52.65;;;19.80;57.90;;;;;;4925744;28;98271;-67
2022/05/07 05:08:18;;;;;;;65.90;52.00;;;19.80;57.90;;;;;;4943439;28;97391;-67
2022/05/07 05:10:45;;;;;;;66.32;51.95;;;19.90;58.00;;;;;;4938897;28;101046;-66
2022/05/07 05:13:11;;;;;;;67.35;52.28;;;19.90;57.80;;;;;;4930207;28;98014;-68
2022/05/07 05:15:37;;;;;;;67.65;53.10;;;19.90;57.70;;;;;;4941883;28;97084;-68
2022/05/07 05:18:03;;;;;;;66.43;51.83;;;19.90;57.60;;;;;;4941327;28;97833;-68
2022/05/07 05:20:28;;;;;;;66.93;52.22;;;20.00;57.70;;;;;;4936899;28;95443;-67
2022/05/07 05:22:54;;;;;;;67.88;52.22;;;20.00;57.70;;;;;;4954414;28;94937;-68
2022/05/07 05:25:20;;;;;;;67.85;52.05;;;20.00;57.60;;;;;;4944767;28;95977;-68
2022/05/07 05:27:46;;;;;;;67.88;51.92;;;20.00;57.60;;;;;;4943879;28;95830;-67
2022/05/07 05:30:12;;;;;;;66.20;51.72;;;20.00;58.10;;;;;;4950246;28;95326;-67
2022/05/07 05:32:38;;;;;;;66.97;52.35;;;20.00;57.70;;;;;;4950567;28;94673;-67
2022/05/07 05:35:05;;;;;;;66.95;52.20;;;20.10;57.60;;;;;;4946225;28;95540;-67
2022/05/07 05:37:31;;;;;;;67.78;52.55;;;20.10;57.50;;;;;;4941818;28;95147;-68
2022/05/07 05:39:57;;;;;;;69.90;52.08;;;20.10;57.60;;;;;;4942525;28;96057;-67
2022/05/07 05:42:24;;;;;;;67.50;52.58;;;20.10;57.40;;;;;;4941297;28;95460;-67
2022/05/07 05:44:50;;;;;;;67.18;52.20;;;20.10;57.50;;;;;;4932787;28;96037;-67
2022/05/07 05:47:15;;;;;;;66.65;52.25;;;20.10;57.50;;;;;;4946564;28;97740;-67
2022/05/07 05:49:41;;;;;;;67.65;52.35;;;20.10;57.50;;;;;;4940183;28;99524;-67
2022/05/07 05:52:07;;;;;;;67.57;51.90;;;20.10;57.50;;;;;;4936374;28;99875;-67
2022/05/07 05:54:34;;;;;;;66.70;52.47;;;20.10;57.40;;;;;;4953061;28;96724;-67
2022/05/07 05:57:00;;;;;;;68.35;52.70;;;20.10;57.40;;;;;;4949107;28;96733;-67
2022/05/07 05:59:26;;;;;;;66.80;51.83;;;20.10;57.40;;;;;;4942168;28;97469;-67
2022/05/07 06:01:52;;;;;;;67.75;52.53;;;20.20;57.40;;;;;;4946155;28;97772;-67
2022/05/07 06:04:18;;;;;;;68.60;52.55;;;20.20;57.40;;;;;;4959553;28;96330;-68
2022/05/07 06:06:44;;;;;;;66.97;51.95;;;20.10;57.40;;;;;;4946680;28;101620;-67
2022/05/07 06:09:10;;;;;;;68.30;52.83;;;20.20;57.30;;;;;;4947617;28;95370;-68
2022/05/07 06:11:35;;;;;;;67.22;52.40;;;20.20;57.20;;;;;;4937237;28;95676;-66
2022/05/07 06:14:01;;;;;;;68.90;52.65;;;20.20;57.30;;;;;;4936550;28;100474;-66
2022/05/07 06:16:26;;;;;;;69.65;52.40;;;20.20;57.40;;;;;;4941270;28;95410;-66
2022/05/07 06:18:52;;;;;;;67.63;52.08;;;20.20;57.40;;;;;;4939136;28;96288;-67
2022/05/07 06:21:18;;;;;;;66.32;51.60;;;20.10;57.30;;;;;;4952193;28;94283;-67
2022/05/07 06:23:44;;;;;;;66.85;52.17;;;20.20;57.40;;;;;;4943894;28;96833;-68
2022/05/07 06:28:54;;;;;;;68.30;52.70;;;20.10;57.40;;;;;;4944479;28;98218;-67
2022/05/07 06:31:19;;;;;;;67.80;52.33;;;20.20;57.40;;;;;;4941313;28;95797;-67
2022/05/07 06:33:45;;;;;;;67.72;52.17;;;20.20;57.40;;;;;;4942683;28;95776;-68
2022/05/07 06:36:11;;;;;;;68.95;52.90;;;20.20;57.30;;;;;;4950782;28;95456;-67
2022/05/07 06:38:37;;;;;;;67.32;52.38;;;20.20;57.30;;;;;;4946363;28;95151;-67
2022/05/07 06:41:05;;;;;;;67.47;52.45;;;20.20;57.40;;;;;;4934637;28;95454;-67
2022/05/07 06:43:32;;;;;;;68.75;53.10;;;20.20;57.40;;;;;;4936571;28;95175;-67
2022/05/07 06:45:59;;;;;;;68.97;53.53;;;20.20;57.40;;;;;;4947673;28;95039;-66
2022/05/07 06:48:25;;;;;;;66.85;52.10;;;20.20;57.30;;;;;;4935330;28;99061;-67
2022/05/07 06:50:54;;;;;;;69.00;53.22;;;20.20;57.40;;;;;;4944360;28;95472;-67
2022/05/07 06:53:20;;;;;;;68.78;52.42;;;20.20;57.40;;;;;;4943516;28;96576;-67
2022/05/07 06:55:56;;;;;;;68.65;52.08;;;20.20;57.40;;;;;;4944778;28;95782;-67
2022/05/07 06:58:26;;;;;;;67.95;52.45;;;20.20;57.50;;;;;;4949274;28;99296;-67
2022/05/07 07:00:52;;;;;;;67.90;51.85;;;20.20;57.40;;;;;;4950569;28;95340;-67
2022/05/07 07:03:18;;;;;;;70.63;52.47;;;20.20;57.40;;;;;;4946682;28;97417;-67
2022/05/07 07:05:44;;;;;;;68.28;52.63;;;20.20;57.50;;;;;;4933808;28;95684;-67
2022/05/07 07:08:13;;;;;;;68.78;52.63;;;20.20;57.50;;;;;;4945275;28;98379;-67
2022/05/07 07:10:41;;;;;;;67.30;52.25;;;20.20;57.50;;;;;;4945824;28;95297;-68
2022/05/07 07:13:07;;;;;;;67.70;52.28;;;20.20;57.50;;;;;;4936779;28;95375;-67
2022/05/07 07:15:33;;;;;;;67.38;52.40;;;20.20;57.60;;;;;;4950780;28;100783;-68
2022/05/07 07:17:59;;;;;;;69.80;52.45;;;20.20;57.50;;;;;;4948156;28;96359;-67
2022/05/07 07:20:24;;;;;;;67.65;51.88;;;20.20;57.40;;;;;;4946162;28;98255;-67
2022/05/07 07:22:51;;;;;;;70.13;53.13;;;20.20;57.60;;;;;;4946083;28;95168;-67
2022/05/07 07:25:17;;;;;;;68.07;52.60;;;20.20;57.40;;;;;;4944429;28;97599;-67
2022/05/07 07:27:43;;;;;;;67.38;52.17;;;20.20;57.50;;;;;;4942827;28;97573;-67
2022/05/07 07:30:09;;;;;;;67.95;52.25;;;20.20;57.50;;;;;;4945821;28;97176;-67
2022/05/07 07:32:34;;;;;;;70.03;53.08;;;20.20;57.40;;;;;;4943039;28;95212;-67
2022/05/07 07:35:00;;;;;;;68.68;52.75;;;20.20;57.30;;;;;;4949089;28;95300;-67
2022/05/07 07:37:27;;;;;;;68.10;52.50;;;20.20;57.50;;;;;;4944904;28;95268;-68
2022/05/07 07:39:53;;;;;;;69.15;52.58;;;20.20;57.40;;;;;;4936805;28;95333;-67
2022/05/07 07:42:23;;;;;;;67.22;52.58;;;20.30;57.40;;;;;;4940660;28;97110;-67
2022/05/07 07:47:56;;;;;;;68.70;52.92;;;20.30;57.30;;;;;;4940501;28;95681;-67
2022/05/07 07:50:18;;;;;;;69.22;53.40;;;20.30;57.50;;;;;;4951464;28;95152;-67
2022/05/07 07:52:44;;;;;;;69.05;52.78;;;20.20;57.40;;;;;;4941985;28;97172;-67
2022/05/07 07:55:10;;;;;;;69.60;53.67;;;20.20;57.40;;;;;;4945324;28;95129;-67
2022/05/07 07:57:35;;;;;;;69.10;53.42;;;20.30;57.70;;;;;;4943769;28;94704;-67
2022/05/07 08:00:01;;;;;;;67.70;52.67;;;20.20;57.30;;;;;;4945434;28;94950;-67
2022/05/07 08:02:26;;;;;;;68.82;53.38;;;20.20;57.30;;;;;;4933113;28;96481;-67
2022/05/07 08:04:54;;;;;;;69.18;53.22;;;20.20;57.40;;;;;;4934432;28;95067;-66
2022/05/07 08:12:48;;;;;;;69.70;52.95;;;20.20;57.50;;;;;;4931892;28;97537;-67
2022/05/07 08:15:14;;;;;;;68.57;52.47;;;20.20;57.70;;;;;;4937756;28;96341;-67
2022/05/07 08:17:40;;;;;;;67.90;52.30;;;20.20;57.80;;;;;;4931720;28;95391;-66
2022/05/07 08:20:09;;;;;;;67.38;52.20;;;20.20;57.90;;;;;;4933732;28;96739;-69
2022/05/07 08:22:34;;;;;;;68.35;52.38;;;20.20;57.90;;;;;;4937610;28;96193;-68
2022/05/07 08:25:01;;;;;;;68.25;52.47;;;20.20;58.00;;;;;;4928916;28;97897;-67
2022/05/07 08:27:27;;;;;;;68.72;52.67;;;20.30;57.80;;;;;;4947277;28;95051;-69
2022/05/07 08:29:56;;;;;;;67.95;52.67;;;20.30;57.90;;;;;;4946907;28;94742;-68
2022/05/07 08:32:21;;;;;;;68.22;52.75;;;20.30;57.80;;;;;;4939177;28;98508;-68
2022/05/07 08:34:48;;;;;;;71.28;53.50;;;20.30;57.90;;;;;;4930216;28;97307;-69
2022/05/07 08:37:14;;;;;;;67.20;52.20;;;20.30;57.70;;;;;;4942357;28;100060;-68
2022/05/07 08:39:40;;;;;;;67.10;52.15;;;20.30;57.80;;;;;;4943150;28;95818;-67
2022/05/07 08:42:07;;;;;;;69.13;53.03;;;20.30;57.70;;;;;;4934024;28;95910;-68
2022/05/07 08:44:33;;;;;;;68.57;52.67;;;20.30;57.80;;;;;;4931613;28;96512;-68
2022/05/07 08:47:00;;;;;;;67.32;52.50;;;20.40;57.70;;;;;;4929989;28;97975;-68
2022/05/07 08:49:25;;;;;;;68.45;52.92;;;20.40;57.60;;;;;;4935086;28;95588;-67
2022/05/07 08:51:54;;;;;;;67.97;52.33;;;20.50;57.70;;;;;;4942804;28;96545;-68
2022/05/07 08:54:20;;;;;;;69.15;52.78;;;20.50;57.50;;;;;;4937661;28;95549;-68
2022/05/07 08:56:46;;;;;;;69.82;53.08;;;20.60;57.30;;;;;;4944828;28;96579;-67
2022/05/07 08:59:13;;;;;;;71.85;52.80;;;20.70;57.20;;;;;;4946648;28;95675;-67
2022/05/07 09:01:38;;;;;;;69.93;52.88;;;20.80;57.20;;;;;;4950718;28;95159;-67
2022/05/07 09:04:11;;;;;;;70.47;53.08;;;20.80;57.00;;;;;;4942819;28;98062;-67
2022/05/07 09:06:38;;;;;;;69.10;53.00;;;20.90;56.90;;;;;;4946082;28;94797;-67
2022/05/07 09:09:07;;;;;;;69.60;53.20;;;21.00;56.70;;;;;;4940069;28;95149;-67
2022/05/07 09:11:42;;;;;;;71.78;53.97;;;21.00;56.50;;;;;;4944958;28;99049;-69
2022/05/07 09:14:09;;;;;;;72.80;53.15;;;21.10;56.30;;;;;;4929914;28;96876;-68
2022/05/07 09:16:42;;;;;;;72.35;54.67;;;21.10;56.40;;;;;;4942190;28;95427;-67
2022/05/07 09:19:21;;;;;;;70.63;53.45;;;21.20;56.10;;;;;;4929354;28;96748;-68
2022/05/07 09:21:47;;;;;;;70.15;53.28;;;21.30;56.10;;;;;;4947214;28;96101;-68
2022/05/07 09:24:13;;;;;;;71.15;53.42;;;21.30;56.00;;;;;;4938611;28;96710;-68
2022/05/07 09:26:40;;;;;;;71.32;53.28;;;21.40;55.90;;;;;;4952282;28;95270;-68
2022/05/07 09:29:11;;;;;;;71.90;53.38;;;21.40;55.90;;;;;;4944465;28;94918;-68
2022/05/07 09:31:41;;;;;;;71.43;53.55;;;21.50;55.80;;;;;;4948911;28;96748;-68
2022/05/07 09:36:59;;;;;;;69.70;53.17;;;21.50;55.80;;;;;;4947229;28;95264;-69
2022/05/07 09:39:34;;;;;;;72.32;53.88;;;21.50;55.80;;;;;;4947906;28;94367;-67
2022/05/07 09:42:01;;;;;;;72.53;53.85;;;21.50;55.80;;;;;;4941633;28;97649;-67
2022/05/07 09:44:30;;;;;;;72.15;53.78;;;21.50;55.90;;;;;;4921839;28;96019;-66
2022/05/07 09:46:57;;;;;;;71.45;53.55;;;21.50;56.00;;;;;;4946162;28;98001;-67
2022/05/07 09:49:27;;;;;;;74.00;54.63;;;21.50;55.90;;;;;;4943863;28;95484;-67
2022/05/07 09:51:54;;;;;;;72.70;54.65;;;21.50;56.00;;;;;;4949810;28;95475;-67
2022/05/07 09:59:51;;;;;;;70.97;53.53;;;21.50;56.10;;;;;;4945179;28;95179;-66
2022/05/07 10:02:40;;;;;;;72.40;53.92;;;21.50;56.70;;;;;;4949042;28;97032;-67
2022/05/07 10:05:20;;;;;;;73.32;55.22;;;21.50;56.00;;;;;;4934045;28;96913;-68
2022/05/07 10:08:24;;;;;;;73.97;54.50;;;21.50;55.90;;;;;;4941665;28;95213;-68
2022/05/07 10:10:51;;;;;;;71.97;54.35;;;21.50;56.00;;;;;;4923971;28;95681;-66
2022/05/07 10:13:18;;;;;;;71.25;54.05;;;21.50;55.80;;;;;;4932421;28;98468;-68
2022/05/07 10:15:57;;;;;;;73.50;54.92;;;21.60;55.90;;;;;;4926983;28;102375;-67
2022/05/07 10:18:38;;;;;;;73.30;54.20;;;21.60;55.80;;;;;;4913430;28;95088;-68
2022/05/07 10:21:15;;;;;;;70.68;54.10;;;21.60;55.70;;;;;;4941765;28;98107;-64
2022/05/07 10:23:54;;;;;;;71.95;54.10;;;21.60;55.70;;;;;;4939405;28;96925;-66
2022/05/07 10:26:22;;;;;;;74.88;54.42;;;21.60;55.60;;;;;;4941310;28;95737;-68
2022/05/07 10:28:48;;;;;;;72.45;54.40;;;21.60;55.60;;;;;;4935411;28;96510;-68
2022/05/07 10:31:22;;;;;;;72.32;54.35;;;21.60;55.60;;;;;;4943376;28;95866;-69
2022/05/07 10:33:49;;;;;;;72.75;54.38;;;21.60;55.60;;;;;;4940811;28;96237;-67
2022/05/07 10:36:15;;;;;;;73.20;54.67;;;21.60;55.50;;;;;;4938057;28;100684;-69
2022/05/07 10:38:44;;;;;;;74.53;54.85;;;21.60;55.60;;;;;;4938823;28;101458;-68
2022/05/07 10:41:12;;;;;;;75.47;54.55;;;21.60;55.70;;;;;;4935342;28;100610;-69
2022/05/07 10:43:46;;;;;;;72.80;54.75;;;21.60;55.80;;;;;;4945254;28;97422;-69
2022/05/07 10:46:15;;;;;;;73.85;55.50;;;21.60;55.70;;;;;;4922876;28;96064;-68
2022/05/07 10:48:55;;;;;;;75.97;55.30;;;21.60;55.80;;;;;;4943313;28;95368;-67
2022/05/07 10:51:28;;;;;;;73.97;55.42;;;21.60;55.80;;;;;;4935630;28;95768;-67
2022/05/07 10:54:00;;;;;;;73.50;55.35;;;21.60;55.80;;;;;;4935263;28;94720;-66
2022/05/07 10:56:28;;;;;;;73.45;55.88;;;21.60;55.80;;;;;;4939917;28;95808;-67
2022/05/07 10:58:56;;;;;;;74.25;55.10;;;21.60;55.80;;;;;;4939791;28;94948;-67
2022/05/07 11:01:24;;;;;;;75.40;57.22;;;21.60;55.80;;;;;;4931648;28;95989;-66
2022/05/07 11:04:04;;;;;;;74.47;55.50;;;21.60;55.80;;;;;;4938995;28;98190;-66
2022/05/07 11:06:50;;;;;;;74.23;54.87;;;21.60;55.80;;;;;;4930093;28;100222;-66
2022/05/07 11:09:18;;;;;;;75.30;55.35;;;21.60;55.90;;;;;;4930696;28;96435;-69
2022/05/07 11:11:49;;;;;;;74.63;55.00;;;21.60;55.90;;;;;;4935671;28;97706;-67
2022/05/07 11:14:35;;;;;;;;;;;21.60;55.90;;;;;;4925267;28;99875;-68
2022/05/07 11:17:03;;;;;;;75.60;54.70;;;21.70;55.90;;;;;;4935607;28;95361;-66
2022/05/07 11:19:33;;;;;;;77.03;55.53;;;21.60;56.00;;;;;;4936885;28;95094;-66
2022/05/07 11:22:01;;;;;;;74.82;55.30;;;21.60;55.90;;;;;;4928565;28;94634;-66
2022/05/07 11:24:28;;;;;;;75.70;54.88;;;21.60;56.10;;;;;;4936965;28;99973;-66
2022/05/07 11:26:56;;;;;;;73.53;54.97;;;21.60;56.10;;;;;;4945489;28;100249;-66
2022/05/07 11:29:22;;;;;;;72.65;54.90;;;21.60;56.10;;;;;;4943227;28;95728;-66
2022/05/07 11:32:00;;;;;;;72.35;54.63;;;21.60;56.20;;;;;;4935735;28;95331;-66
2022/05/07 11:34:36;;;;;;;74.55;55.30;;;21.60;56.20;;;;;;4933482;28;96124;-66
2022/05/07 11:37:22;;;;;;;72.63;54.80;;;21.60;56.30;;;;;;4930233;28;96758;-66
2022/05/07 11:39:58;;;;;;;73.25;55.03;;;21.60;56.20;;;;;;4928722;28;96129;-66
2022/05/07 11:42:31;;;;;;;76.63;56.72;;;21.70;56.20;;;;;;4935186;28;97277;-66
2022/05/07 11:48:14;;;;;;;74.13;54.95;;;21.60;56.10;;;;;;4934867;28;96216;-66
2022/05/07 11:50:54;;;;;;;76.90;55.35;;;21.70;56.10;;;;;;4936714;28;95671;-66
2022/05/07 11:53:22;;;;;;;72.63;54.70;;;21.70;56.10;;;;;;4936960;28;95516;-66
2022/05/07 11:55:49;;;;;;;73.43;54.95;;;21.60;56.10;;;;;;4927613;28;101333;-66
2022/05/07 11:58:23;;;;;;;75.88;55.03;;;21.60;56.00;;;;;;4942742;28;96844;-66
2022/05/07 12:00:56;;;;;;;72.25;54.72;;;21.70;56.10;;;;;;4936168;28;95673;-66
2022/05/07 12:03:26;;;;;;;72.32;54.38;;;21.70;56.70;;;;;;4932561;28;95523;-65
2022/05/07 12:05:54;;;;;;;72.82;54.53;;;21.70;56.10;;;;;;4938138;28;96929;-67
2022/05/07 12:08:21;;;;;;;72.55;54.60;;;21.60;56.00;;;;;;4946936;28;95439;-66
2022/05/07 12:10:49;;;;;;;72.15;54.55;;;21.70;56.10;;;;;;4932297;28;97134;-66
2022/05/07 12:13:19;;;;;;;72.80;54.30;;;21.70;56.00;;;;;;4930706;28;100643;-66
2022/05/07 12:18:30;;;;;;;73.07;54.55;;;21.70;55.90;;;;;;4926910;28;95186;-66
2022/05/07 12:20:56;;;;;;;73.60;54.55;;;21.70;55.90;;;;;;4932001;28;96146;-66
2022/05/07 12:31:37;;;;;;;73.22;54.33;;;21.70;56.10;;;;;;4922130;28;96972;-66
2022/05/07 12:34:04;;;;;;;73.03;54.10;;;21.70;56.10;;;;;;4932124;28;100569;-65
2022/05/07 12:36:31;;;;;;;73.10;54.55;;;21.70;56.10;;;;;;4934936;28;95825;-66
2022/05/07 12:38:59;;;;;;;72.22;54.60;;;21.70;56.00;;;;;;4933265;28;94977;-66
2022/05/07 12:41:26;;;;;;;72.97;54.20;;;21.80;56.00;;;;;;4932728;28;96082;-66
2022/05/07 12:43:52;;;;;;;71.88;54.42;;;21.80;56.00;;;;;;4940080;28;95373;-66
2022/05/07 12:46:19;;;;;;;74.28;54.63;;;21.80;56.00;;;;;;4939246;28;96189;-66
2022/05/07 12:48:45;;;;;;;73.10;54.70;;;21.80;55.90;;;;;;4949759;28;96140;-66
2022/05/07 12:51:11;;;;;;;71.95;54.35;;;21.80;55.90;;;;;;4927861;28;100143;-66
2022/05/07 12:53:36;;;;;;;73.72;54.65;;;21.80;55.90;;;;;;4929531;28;96513;-66
2022/05/07 12:56:04;;;;;;;73.40;54.65;;;21.80;56.00;;;;;;4934902;28;97472;-66
2022/05/07 12:58:29;;;;;;;73.45;54.65;;;21.80;56.50;;;;;;4942792;28;95986;-67
2022/05/07 13:00:55;;;;;;;73.78;54.53;;;21.80;56.00;;;;;;4940964;28;99736;-66
2022/05/07 13:03:21;;;;;;;73.55;54.60;;;21.80;55.90;;;;;;4946747;28;94574;-66
2022/05/07 13:05:47;;;;;;;72.88;54.50;;;21.80;55.90;;;;;;4931953;28;96813;-66
2022/05/07 13:08:14;;;;;;;71.95;54.63;;;21.80;56.50;;;;;;4930203;28;98234;-66
2022/05/07 13:10:40;;;;;;;71.80;54.30;;;21.80;55.90;;;;;;4931382;28;99155;-66